Cataract, WI (54620)

9:25 PM CST on February 09, 2016 (GMT -0600)
Cataract / New Lyme - Rural woods | | Change Station
CLOSE
Current Station
Personal Weather Station
Location: Sparta, WI
Elevation: 879 ft
Nearby Weather Stations

Elev 879 ft 44.10 °N, 90.79 °W | Updated 6 minutes ago

Clear
Clear
-8.3 °F
Feels Like -8 °F
N
0.0
Wind Variable Wind from NE

Today
High -- | Low -- °F
--% Chance of Precip.
Yesterday
High -- | Low -- °F
Precip. -- in
Pressure 30.06 in
Visibility 10.0 miles
Clouds Clear
Windchill -8 °F
Dew Point -15 °F
Humidity 70%
Rainfall 0.00 in
Snow Depth Not available.
7:11 AM 5:24 PM
Waxing Crescent, 3% visible
METAR KCMY 100315Z AUTO 00000KT 10SM CLR M19/M21 A3006 RMK AO2 T11921209
Pressure 30.06 in
Visibility 10.0 miles
Clouds Clear
Windchill -8 °F
Dew Point -15 °F
Humidity 70%
Rainfall 0.00 in
Snow Depth Not available.
7:11 AM 5:24 PM
Waxing Crescent, 3% visible
METAR KCMY 100315Z AUTO 00000KT 10SM CLR M19/M21 A3006 RMK AO2 T11921209

10-Day Weather Forecast

Almanac

Astronomy

Feb. 09, 2016 Rise Set
Actual Time
Civil Twilight
Nautical Twilight
Astronomical Twilight
Moon
Length of Visible Light
Length of Day
Tomorrow will be .
, % of the Moon is Illuminated

Today's Extremes

State Highs State Lows

Community

WunderPhotos

Upload Photos

1,891,792 photos uploaded!

WunderBlog® & News

Nearby

Air Quality

  Air Quality AQ Index Pollutant
Not available.

Snow Depth

Station Depth Elevation

Earthquake Activity

City Distance Mag. Time & Date
Minimum magnitude displayed is 2.5.

Coastal Water Temperatures

Place Temperature

Stations

Nearby Weather Stations

Station Location Temp. Windchill Dew Point Humidity Wind Precip. Elev Updated Type
                   

Watches & Warnings

There are currently no watches in effect.